OEABOEWD

Guest
Details From OEAB - ABHA
To OEWD - WADI AL DAWASIR
Flight Number -
Tags generated
Created
Modified
Stats Distance 198 nm / 367 km
Max Altitude 17,900 ft / 5,456 m
Waypoints 4
Social Downloads 1
Likes 0
Share VATSIM

Download

Looking for another format? Having issues loading an existing format? Contact us
Advertisement - Login to hide

Notes

Basic altitude profile: - Ascent Rate: 2500ft/min - Ascent Speed: 250kts - Cruise Altitude: 35000ft - Cruise Speed: 420kts - Descent Rate: 1500ft/min - Descent Speed: 250kts Options: - Use NATs: yes - Use PACOTS: yes - Use low airways: yes - Use high airways: yes

Route

OEAB ELIVI V48 KAROD OEWD

ID Type Via Altitude Latitude Longitude Leg Dist Tot Dist Heading (true) Name
O OEAB APT - 0 ft / 0 m 18.24038˚ 42.65663˚ - 0 nm - ABHA
ELIVI FIX - 17,900 ft / 5,456 m 18.81556˚ 43.29556˚ 50 nm 50 nm 46° / 47° -
KAROD FIX V48 (AWY-LO) 15,000 ft / 4,572 m 20.12917˚ 44.77500˚ 115 nm 165 nm 46° / 47° -
O OEWD APT - 0 ft / 0 m 20.50428˚ 45.19955˚ 32 nm 198 nm 47° / 47° WADI AL DAWASIR

Altitude Profile

Advertisement - Login to hide

Weather


0- 5 10 15 20 25 30 35+ Temperature / ° C

Clouds and Precipitation
Forecast for 2017-12-16 00:00 UTC. Updated 41 minutes ago

Ground ~20,000 ft ~40,000 ft Winds

OEAB

Details ICAO OEAB (AHB)
Name ABHA
Region Saudi Arabia
Timezone Asia/Riyadh (UTC+3.0)
Stats Elevation 6,858 ft / 2,090 m (AMSL)
Location 18.240378° 42.656633°
Runways 1
Magnetic Variation 2.769° E

METAR

OEAB 152300Z 25004KT CAVOK 10/08 Q1024 NOSIG

Decode

TAF

Not found

Departure Runways

ID Width Length Bearing (true) Bearing (mag) Surface Threshold Offset Overrun Length
13 148 ft / 45 m 11,036 ft / 3,364 m 129.07° 126.30° Asphalt 0 ft / 0 m 400 ft / 122 m
31 148 ft / 45 m 11,036 ft / 3,364 m 309.07° 306.30° Asphalt 0 ft / 0 m 400 ft / 122 m

OEWD

Details ICAO OEWD (EWD)
Name WADI AL DAWASIR
Region Saudi Arabia
Timezone Asia/Riyadh (UTC+3.0)
Stats Elevation 2,062 ft / 628 m (AMSL)
Location 20.504275° 45.199554°
Runways 1
Magnetic Variation 2.666° E

METAR

OEWD 152300Z 32006KT CAVOK 14/02 Q1017 NOSIG

Decode

TAF

Not found

Destination Runways

ID Width Length Bearing (true) Bearing (mag) Surface Threshold Offset Overrun Length
10 147 ft / 45 m 9,987 ft / 3,044 m 102.04° 99.37° Asphalt 0 ft / 0 m 395 ft / 120 m
28 147 ft / 45 m 9,987 ft / 3,044 m 282.05° 279.38° Asphalt 0 ft / 0 m 395 ft / 120 m

Approach Navaids

Runway Type Ident Frequency Range Bearing (true) Bearing (mag) Slope Elevation
10 Localiser IWDR 110.50 MHz 18 nm / 33 km 102.38° 99.71° - 2,062 ft / 628 m (AMSL)
10 Glidescope IWDR 110.50 MHz 10 nm / 19 km 102.05° 99.38° 3.00° 2,062 ft / 628 m (AMSL)